sensor_id;sensor_type;location;lat;lon;timestamp;P1;durP1;ratioP1;P2;durP2;ratioP2
18302;SDS011;9277;37.980;23.748;2023-07-09T00:01:06;2.95;;;2.67;;
18302;SDS011;9277;37.980;23.748;2023-07-09T00:03:32;4.47;;;3.47;;
18302;SDS011;9277;37.980;23.748;2023-07-09T00:05:59;4.43;;;2.97;;
18302;SDS011;9277;37.980;23.748;2023-07-09T00:08:27;3.65;;;2.90;;
18302;SDS011;9277;37.980;23.748;2023-07-09T00:10:54;4.43;;;3.10;;
18302;SDS011;9277;37.980;23.748;2023-07-09T00:13:21;4.65;;;2.90;;
18302;SDS011;9277;37.980;23.748;2023-07-09T00:15:50;4.70;;;2.92;;
18302;SDS011;9277;37.980;23.748;2023-07-09T00:18:17;4.30;;;2.80;;
18302;SDS011;9277;37.980;23.748;2023-07-09T00:20:44;5.35;;;2.97;;
18302;SDS011;9277;37.980;23.748;2023-07-09T00:23:13;6.45;;;3.55;;
18302;SDS011;9277;37.980;23.748;2023-07-09T00:25:41;4.43;;;3.40;;
18302;SDS011;9277;37.980;23.748;2023-07-09T00:28:12;3.80;;;2.70;;
18302;SDS011;9277;37.980;23.748;2023-07-09T00:30:39;4.95;;;3.10;;
18302;SDS011;9277;37.980;23.748;2023-07-09T00:33:08;4.93;;;3.13;;
18302;SDS011;9277;37.980;23.748;2023-07-09T00:35:36;9.05;;;3.30;;
18302;SDS011;9277;37.980;23.748;2023-07-09T00:38:05;5.05;;;3.28;;
18302;SDS011;9277;37.980;23.748;2023-07-09T00:40:31;4.43;;;3.28;;
18302;SDS011;9277;37.980;23.748;2023-07-09T00:42:59;5.10;;;3.03;;
18302;SDS011;9277;37.980;23.748;2023-07-09T00:45:27;4.90;;;2.80;;
18302;SDS011;9277;37.980;23.748;2023-07-09T00:47:54;4.10;;;2.97;;
18302;SDS011;9277;37.980;23.748;2023-07-09T00:50:29;4.85;;;3.08;;
18302;SDS011;9277;37.980;23.748;2023-07-09T00:52:59;3.70;;;3.00;;
18302;SDS011;9277;37.980;23.748;2023-07-09T00:55:31;4.38;;;3.25;;
18302;SDS011;9277;37.980;23.748;2023-07-09T00:57:59;5.18;;;3.13;;
18302;SDS011;9277;37.980;23.748;2023-07-09T01:00:28;3.60;;;3.10;;
18302;SDS011;9277;37.980;23.748;2023-07-09T01:03:00;4.70;;;2.90;;
18302;SDS011;9277;37.980;23.748;2023-07-09T01:05:30;4.45;;;2.83;;
18302;SDS011;9277;37.980;23.748;2023-07-09T01:07:57;5.10;;;3.03;;
18302;SDS011;9277;37.980;23.748;2023-07-09T01:10:24;3.70;;;2.90;;
18302;SDS011;9277;37.980;23.748;2023-07-09T01:12:51;4.93;;;3.08;;
18302;SDS011;9277;37.980;23.748;2023-07-09T01:15:18;8.27;;;2.90;;
18302;SDS011;9277;37.980;23.748;2023-07-09T01:17:45;5.75;;;3.08;;
18302;SDS011;9277;37.980;23.748;2023-07-09T01:20:16;6.28;;;2.95;;
18302;SDS011;9277;37.980;23.748;2023-07-09T01:22:49;5.00;;;3.20;;
18302;SDS011;9277;37.980;23.748;2023-07-09T01:25:16;5.50;;;2.95;;
18302;SDS011;9277;37.980;23.748;2023-07-09T01:27:44;4.30;;;2.85;;
18302;SDS011;9277;37.980;23.748;2023-07-09T01:30:12;7.88;;;3.30;;
18302;SDS011;9277;37.980;23.748;2023-07-09T01:32:40;7.90;;;3.05;;
18302;SDS011;9277;37.980;23.748;2023-07-09T01:35:10;4.65;;;3.28;;
18302;SDS011;9277;37.980;23.748;2023-07-09T01:37:37;4.55;;;2.97;;
18302;SDS011;9277;37.980;23.748;2023-07-09T01:40:09;3.65;;;2.90;;
18302;SDS011;9277;37.980;23.748;2023-07-09T01:42:36;3.72;;;2.70;;
18302;SDS011;9277;37.980;23.748;2023-07-09T01:45:04;3.83;;;2.88;;
18302;SDS011;9277;37.980;23.748;2023-07-09T01:47:31;4.35;;;2.92;;
18302;SDS011;9277;37.980;23.748;2023-07-09T01:49:58;5.75;;;3.42;;
18302;SDS011;9277;37.980;23.748;2023-07-09T01:52:26;4.43;;;2.70;;
18302;SDS011;9277;37.980;23.748;2023-07-09T01:54:53;6.20;;;3.03;;
18302;SDS011;9277;37.980;23.748;2023-07-09T01:57:22;7.10;;;3.17;;
18302;SDS011;9277;37.980;23.748;2023-07-09T01:59:49;3.15;;;2.70;;
18302;SDS011;9277;37.980;23.748;2023-07-09T02:02:18;6.40;;;2.97;;
18302;SDS011;9277;37.980;23.748;2023-07-09T02:04:46;7.18;;;3.13;;
18302;SDS011;9277;37.980;23.748;2023-07-09T02:07:13;5.35;;;2.88;;
18302;SDS011;9277;37.980;23.748;2023-07-09T02:09:40;4.63;;;3.00;;
18302;SDS011;9277;37.980;23.748;2023-07-09T02:12:07;3.72;;;2.70;;
18302;SDS011;9277;37.980;23.748;2023-07-09T02:14:36;5.88;;;3.10;;
18302;SDS011;9277;37.980;23.748;2023-07-09T02:17:03;5.63;;;2.85;;
18302;SDS011;9277;37.980;23.748;2023-07-09T02:19:30;5.18;;;3.22;;
18302;SDS011;9277;37.980;23.748;2023-07-09T02:21:57;3.72;;;2.60;;
18302;SDS011;9277;37.980;23.748;2023-07-09T02:24:24;3.67;;;2.90;;
18302;SDS011;9277;37.980;23.748;2023-07-09T02:26:52;3.78;;;2.88;;
18302;SDS011;9277;37.980;23.748;2023-07-09T02:29:19;3.85;;;2.47;;
18302;SDS011;9277;37.980;23.748;2023-07-09T02:31:48;4.07;;;2.80;;
18302;SDS011;9277;37.980;23.748;2023-07-09T02:34:14;5.63;;;2.72;;
18302;SDS011;9277;37.980;23.748;2023-07-09T02:36:41;3.50;;;2.58;;
18302;SDS011;9277;37.980;23.748;2023-07-09T02:39:08;4.40;;;3.17;;
18302;SDS011;9277;37.980;23.748;2023-07-09T02:41:35;4.68;;;2.92;;
18302;SDS011;9277;37.980;23.748;2023-07-09T02:44:02;4.00;;;3.13;;
18302;SDS011;9277;37.980;23.748;2023-07-09T02:46:29;5.03;;;3.50;;
18302;SDS011;9277;37.980;23.748;2023-07-09T02:48:57;5.70;;;3.38;;
18302;SDS011;9277;37.980;23.748;2023-07-09T02:51:24;5.15;;;3.05;;
18302;SDS011;9277;37.980;23.748;2023-07-09T02:53:52;4.88;;;2.90;;
18302;SDS011;9277;37.980;23.748;2023-07-09T02:56:18;7.20;;;3.13;;
18302;SDS011;9277;37.980;23.748;2023-07-09T02:58:45;5.70;;;3.03;;
18302;SDS011;9277;37.980;23.748;2023-07-09T03:01:12;4.78;;;2.85;;
18302;SDS011;9277;37.980;23.748;2023-07-09T03:03:39;4.95;;;3.10;;
18302;SDS011;9277;37.980;23.748;2023-07-09T03:06:07;5.40;;;3.08;;
18302;SDS011;9277;37.980;23.748;2023-07-09T03:08:34;5.50;;;2.70;;
18302;SDS011;9277;37.980;23.748;2023-07-09T03:11:07;4.32;;;2.83;;
18302;SDS011;9277;37.980;23.748;2023-07-09T03:13:34;3.53;;;2.58;;
18302;SDS011;9277;37.980;23.748;2023-07-09T03:16:01;5.88;;;2.92;;
18302;SDS011;9277;37.980;23.748;2023-07-09T03:18:28;4.75;;;2.58;;
18302;SDS011;9277;37.980;23.748;2023-07-09T03:20:54;2.70;;;2.50;;
18302;SDS011;9277;37.980;23.748;2023-07-09T03:23:23;4.25;;;2.70;;
18302;SDS011;9277;37.980;23.748;2023-07-09T03:25:50;5.40;;;3.30;;
18302;SDS011;9277;37.980;23.748;2023-07-09T03:28:17;6.20;;;2.80;;
18302;SDS011;9277;37.980;23.748;2023-07-09T03:30:44;4.90;;;2.75;;
18302;SDS011;9277;37.980;23.748;2023-07-09T03:33:11;5.80;;;2.72;;
18302;SDS011;9277;37.980;23.748;2023-07-09T03:35:38;3.42;;;3.00;;
18302;SDS011;9277;37.980;23.748;2023-07-09T03:38:05;4.05;;;2.83;;
18302;SDS011;9277;37.980;23.748;2023-07-09T03:40:34;4.80;;;2.78;;
18302;SDS011;9277;37.980;23.748;2023-07-09T03:43:02;6.10;;;3.28;;
18302;SDS011;9277;37.980;23.748;2023-07-09T03:45:29;7.65;;;3.08;;
18302;SDS011;9277;37.980;23.748;2023-07-09T03:47:57;4.47;;;3.00;;
18302;SDS011;9277;37.980;23.748;2023-07-09T03:50:23;3.60;;;2.97;;
18302;SDS011;9277;37.980;23.748;2023-07-09T03:52:50;4.03;;;3.00;;
18302;SDS011;9277;37.980;23.748;2023-07-09T03:55:17;5.47;;;3.00;;
18302;SDS011;9277;37.980;23.748;2023-07-09T03:57:45;4.78;;;3.40;;
18302;SDS011;9277;37.980;23.748;2023-07-09T04:00:13;4.82;;;3.42;;
18302;SDS011;9277;37.980;23.748;2023-07-09T04:02:40;5.80;;;3.45;;
18302;SDS011;9277;37.980;23.748;2023-07-09T04:05:09;5.25;;;3.38;;
18302;SDS011;9277;37.980;23.748;2023-07-09T04:07:36;4.28;;;3.50;;
18302;SDS011;9277;37.980;23.748;2023-07-09T04:10:03;5.60;;;3.08;;
18302;SDS011;9277;37.980;23.748;2023-07-09T04:12:30;11.43;;;3.80;;
18302;SDS011;9277;37.980;23.748;2023-07-09T04:14:59;7.25;;;3.90;;
18302;SDS011;9277;37.980;23.748;2023-07-09T04:17:26;5.95;;;4.07;;
18302;SDS011;9277;37.980;23.748;2023-07-09T04:19:52;5.88;;;4.20;;
18302;SDS011;9277;37.980;23.748;2023-07-09T04:22:19;6.63;;;4.10;;
18302;SDS011;9277;37.980;23.748;2023-07-09T04:24:46;5.28;;;3.80;;
18302;SDS011;9277;37.980;23.748;2023-07-09T04:27:13;5.70;;;4.22;;
18302;SDS011;9277;37.980;23.748;2023-07-09T04:29:40;8.15;;;4.63;;
18302;SDS011;9277;37.980;23.748;2023-07-09T04:32:12;6.05;;;4.32;;
18302;SDS011;9277;37.980;23.748;2023-07-09T04:34:39;10.07;;;4.32;;
18302;SDS011;9277;37.980;23.748;2023-07-09T04:37:06;5.35;;;3.97;;
18302;SDS011;9277;37.980;23.748;2023-07-09T04:39:34;5.47;;;3.72;;
18302;SDS011;9277;37.980;23.748;2023-07-09T04:42:00;7.22;;;4.50;;
18302;SDS011;9277;37.980;23.748;2023-07-09T04:44:27;4.28;;;3.88;;
18302;SDS011;9277;37.980;23.748;2023-07-09T04:46:54;5.05;;;4.13;;
18302;SDS011;9277;37.980;23.748;2023-07-09T04:49:22;4.72;;;4.05;;
18302;SDS011;9277;37.980;23.748;2023-07-09T04:51:49;4.32;;;3.85;;
18302;SDS011;9277;37.980;23.748;2023-07-09T04:54:16;7.25;;;4.40;;
18302;SDS011;9277;37.980;23.748;2023-07-09T04:56:43;7.18;;;4.28;;
18302;SDS011;9277;37.980;23.748;2023-07-09T04:59:10;6.25;;;4.28;;
18302;SDS011;9277;37.980;23.748;2023-07-09T05:01:37;4.55;;;3.70;;
18302;SDS011;9277;37.980;23.748;2023-07-09T05:04:04;5.75;;;4.00;;
18302;SDS011;9277;37.980;23.748;2023-07-09T05:06:33;5.68;;;4.50;;
18302;SDS011;9277;37.980;23.748;2023-07-09T05:09:00;7.70;;;4.40;;
18302;SDS011;9277;37.980;23.748;2023-07-09T05:11:27;5.03;;;3.70;;
18302;SDS011;9277;37.980;23.748;2023-07-09T05:13:54;5.28;;;4.25;;
18302;SDS011;9277;37.980;23.748;2023-07-09T05:16:21;9.80;;;4.45;;
18302;SDS011;9277;37.980;23.748;2023-07-09T05:18:47;5.95;;;4.38;;
18302;SDS011;9277;37.980;23.748;2023-07-09T05:21:14;9.75;;;4.57;;
18302;SDS011;9277;37.980;23.748;2023-07-09T05:23:42;5.72;;;4.07;;
18302;SDS011;9277;37.980;23.748;2023-07-09T05:26:09;15.77;;;4.95;;
18302;SDS011;9277;37.980;23.748;2023-07-09T05:28:36;7.68;;;4.35;;
18302;SDS011;9277;37.980;23.748;2023-07-09T05:31:03;6.72;;;4.07;;
18302;SDS011;9277;37.980;23.748;2023-07-09T05:33:30;5.18;;;4.10;;
18302;SDS011;9277;37.980;23.748;2023-07-09T05:35:57;5.07;;;3.55;;
18302;SDS011;9277;37.980;23.748;2023-07-09T05:38:24;6.15;;;3.90;;
18302;SDS011;9277;37.980;23.748;2023-07-09T05:40:59;7.05;;;4.53;;
18302;SDS011;9277;37.980;23.748;2023-07-09T05:43:26;8.43;;;3.80;;
18302;SDS011;9277;37.980;23.748;2023-07-09T05:45:52;7.13;;;4.15;;
18302;SDS011;9277;37.980;23.748;2023-07-09T05:48:19;11.93;;;4.85;;
18302;SDS011;9277;37.980;23.748;2023-07-09T05:50:47;5.93;;;4.50;;
18302;SDS011;9277;37.980;23.748;2023-07-09T05:53:14;5.03;;;3.70;;
18302;SDS011;9277;37.980;23.748;2023-07-09T05:55:41;3.83;;;3.53;;
18302;SDS011;9277;37.980;23.748;2023-07-09T05:58:09;6.78;;;3.78;;
18302;SDS011;9277;37.980;23.748;2023-07-09T06:00:36;5.35;;;4.45;;
18302;SDS011;9277;37.980;23.748;2023-07-09T06:03:06;4.40;;;3.63;;
18302;SDS011;9277;37.980;23.748;2023-07-09T06:05:32;5.57;;;3.88;;
18302;SDS011;9277;37.980;23.748;2023-07-09T06:07:59;5.55;;;4.22;;
18302;SDS011;9277;37.980;23.748;2023-07-09T06:10:26;5.53;;;3.97;;
18302;SDS011;9277;37.980;23.748;2023-07-09T06:12:53;4.38;;;3.38;;
18302;SDS011;9277;37.980;23.748;2023-07-09T06:15:21;5.15;;;3.50;;
18302;SDS011;9277;37.980;23.748;2023-07-09T06:17:48;5.10;;;3.92;;
18302;SDS011;9277;37.980;23.748;2023-07-09T06:20:14;4.05;;;3.45;;
18302;SDS011;9277;37.980;23.748;2023-07-09T06:22:41;5.30;;;3.53;;
18302;SDS011;9277;37.980;23.748;2023-07-09T06:25:08;9.18;;;4.15;;
18302;SDS011;9277;37.980;23.748;2023-07-09T06:27:35;4.32;;;3.42;;
18302;SDS011;9277;37.980;23.748;2023-07-09T06:30:01;6.43;;;3.78;;
18302;SDS011;9277;37.980;23.748;2023-07-09T06:32:30;5.68;;;3.90;;
18302;SDS011;9277;37.980;23.748;2023-07-09T06:34:56;5.85;;;3.45;;
18302;SDS011;9277;37.980;23.748;2023-07-09T06:37:23;5.90;;;4.20;;
18302;SDS011;9277;37.980;23.748;2023-07-09T06:39:50;6.40;;;3.75;;
18302;SDS011;9277;37.980;23.748;2023-07-09T06:42:17;4.65;;;3.10;;
18302;SDS011;9277;37.980;23.748;2023-07-09T06:44:44;9.45;;;3.38;;
18302;SDS011;9277;37.980;23.748;2023-07-09T06:47:10;5.65;;;3.88;;
18302;SDS011;9277;37.980;23.748;2023-07-09T06:49:39;5.55;;;3.47;;
18302;SDS011;9277;37.980;23.748;2023-07-09T06:52:06;4.88;;;3.53;;
18302;SDS011;9277;37.980;23.748;2023-07-09T06:54:33;4.25;;;3.50;;
18302;SDS011;9277;37.980;23.748;2023-07-09T06:56:59;5.50;;;3.67;;
18302;SDS011;9277;37.980;23.748;2023-07-09T06:59:26;5.07;;;3.65;;
18302;SDS011;9277;37.980;23.748;2023-07-09T07:01:53;5.18;;;3.78;;
18302;SDS011;9277;37.980;23.748;2023-07-09T07:04:20;4.20;;;3.50;;
18302;SDS011;9277;37.980;23.748;2023-07-09T07:06:48;3.95;;;3.50;;
18302;SDS011;9277;37.980;23.748;2023-07-09T07:09:14;6.95;;;3.22;;
18302;SDS011;9277;37.980;23.748;2023-07-09T07:11:41;4.18;;;3.50;;
18302;SDS011;9277;37.980;23.748;2023-07-09T07:14:08;7.28;;;3.53;;
18302;SDS011;9277;37.980;23.748;2023-07-09T07:16:35;4.93;;;3.40;;
18302;SDS011;9277;37.980;23.748;2023-07-09T07:19:01;3.90;;;3.28;;
18302;SDS011;9277;37.980;23.748;2023-07-09T07:21:28;5.25;;;3.50;;
18302;SDS011;9277;37.980;23.748;2023-07-09T07:23:56;4.60;;;3.10;;
18302;SDS011;9277;37.980;23.748;2023-07-09T07:26:23;4.80;;;3.25;;
18302;SDS011;9277;37.980;23.748;2023-07-09T07:28:50;3.45;;;3.03;;
18302;SDS011;9277;37.980;23.748;2023-07-09T07:31:17;4.90;;;3.35;;
18302;SDS011;9277;37.980;23.748;2023-07-09T07:33:44;5.10;;;3.20;;
18302;SDS011;9277;37.980;23.748;2023-07-09T07:36:11;3.53;;;3.03;;
18302;SDS011;9277;37.980;23.748;2023-07-09T07:38:38;4.18;;;3.72;;
18302;SDS011;9277;37.980;23.748;2023-07-09T07:41:06;6.80;;;3.10;;
18302;SDS011;9277;37.980;23.748;2023-07-09T07:43:33;4.43;;;3.47;;
18302;SDS011;9277;37.980;23.748;2023-07-09T07:46:00;6.68;;;3.50;;
18302;SDS011;9277;37.980;23.748;2023-07-09T07:48:27;5.43;;;3.53;;
18302;SDS011;9277;37.980;23.748;2023-07-09T07:50:58;5.90;;;3.45;;
18302;SDS011;9277;37.980;23.748;2023-07-09T07:53:24;4.93;;;3.72;;
18302;SDS011;9277;37.980;23.748;2023-07-09T07:55:54;7.40;;;3.58;;
18302;SDS011;9277;37.980;23.748;2023-07-09T07:58:23;4.68;;;3.08;;
18302;SDS011;9277;37.980;23.748;2023-07-09T08:00:50;4.30;;;2.97;;
18302;SDS011;9277;37.980;23.748;2023-07-09T08:03:22;4.13;;;2.83;;
18302;SDS011;9277;37.980;23.748;2023-07-09T08:05:48;4.43;;;3.00;;
18302;SDS011;9277;37.980;23.748;2023-07-09T08:08:15;3.63;;;3.10;;
18302;SDS011;9277;37.980;23.748;2023-07-09T08:10:42;5.25;;;3.20;;
18302;SDS011;9277;37.980;23.748;2023-07-09T08:13:09;4.97;;;3.38;;
18302;SDS011;9277;37.980;23.748;2023-07-09T08:15:37;4.38;;;2.97;;
18302;SDS011;9277;37.980;23.748;2023-07-09T08:18:04;3.55;;;3.17;;
18302;SDS011;9277;37.980;23.748;2023-07-09T08:20:31;4.72;;;3.10;;
18302;SDS011;9277;37.980;23.748;2023-07-09T08:22:58;3.55;;;2.95;;
18302;SDS011;9277;37.980;23.748;2023-07-09T08:25:25;4.68;;;3.08;;
18302;SDS011;9277;37.980;23.748;2023-07-09T08:27:51;4.38;;;3.40;;
18302;SDS011;9277;37.980;23.748;2023-07-09T08:30:18;3.40;;;3.10;;
18302;SDS011;9277;37.980;23.748;2023-07-09T08:32:47;4.88;;;3.33;;
18302;SDS011;9277;37.980;23.748;2023-07-09T08:35:13;4.35;;;3.25;;
18302;SDS011;9277;37.980;23.748;2023-07-09T08:37:41;4.45;;;3.13;;
18302;SDS011;9277;37.980;23.748;2023-07-09T08:40:09;6.20;;;3.25;;
18302;SDS011;9277;37.980;23.748;2023-07-09T08:42:39;4.75;;;3.40;;
18302;SDS011;9277;37.980;23.748;2023-07-09T08:45:19;4.10;;;2.90;;
18302;SDS011;9277;37.980;23.748;2023-07-09T08:47:55;5.70;;;3.60;;
18302;SDS011;9277;37.980;23.748;2023-07-09T08:50:35;3.95;;;3.38;;
18302;SDS011;9277;37.980;23.748;2023-07-09T08:53:02;5.55;;;3.50;;
18302;SDS011;9277;37.980;23.748;2023-07-09T08:55:31;4.72;;;3.13;;
18302;SDS011;9277;37.980;23.748;2023-07-09T08:58:09;5.55;;;3.22;;
18302;SDS011;9277;37.980;23.748;2023-07-09T09:00:40;5.60;;;3.33;;
18302;SDS011;9277;37.980;23.748;2023-07-09T09:03:10;3.53;;;2.83;;
18302;SDS011;9277;37.980;23.748;2023-07-09T09:05:41;4.55;;;3.25;;
18302;SDS011;9277;37.980;23.748;2023-07-09T09:08:11;10.55;;;3.40;;
18302;SDS011;9277;37.980;23.748;2023-07-09T09:10:41;5.68;;;2.92;;
18302;SDS011;9277;37.980;23.748;2023-07-09T09:13:10;4.78;;;3.28;;
18302;SDS011;9277;37.980;23.748;2023-07-09T09:15:38;4.25;;;3.50;;
18302;SDS011;9277;37.980;23.748;2023-07-09T09:18:19;5.75;;;4.05;;
18302;SDS011;9277;37.980;23.748;2023-07-09T09:20:47;5.72;;;3.50;;
18302;SDS011;9277;37.980;23.748;2023-07-09T09:23:15;4.63;;;3.33;;
18302;SDS011;9277;37.980;23.748;2023-07-09T09:25:42;8.50;;;3.30;;
18302;SDS011;9277;37.980;23.748;2023-07-09T09:28:12;5.57;;;3.38;;
18302;SDS011;9277;37.980;23.748;2023-07-09T09:30:39;6.82;;;3.90;;
18302;SDS011;9277;37.980;23.748;2023-07-09T09:33:07;5.05;;;3.70;;
18302;SDS011;9277;37.980;23.748;2023-07-09T09:35:36;4.03;;;3.33;;
18302;SDS011;9277;37.980;23.748;2023-07-09T09:38:09;3.28;;;2.92;;
18302;SDS011;9277;37.980;23.748;2023-07-09T09:40:36;4.53;;;3.10;;
18302;SDS011;9277;37.980;23.748;2023-07-09T09:43:08;5.60;;;3.45;;
18302;SDS011;9277;37.980;23.748;2023-07-09T09:45:37;6.32;;;3.22;;
18302;SDS011;9277;37.980;23.748;2023-07-09T09:48:09;5.10;;;3.10;;
18302;SDS011;9277;37.980;23.748;2023-07-09T09:50:39;4.38;;;3.00;;
18302;SDS011;9277;37.980;23.748;2023-07-09T09:53:08;6.40;;;3.30;;
18302;SDS011;9277;37.980;23.748;2023-07-09T09:55:37;3.67;;;3.38;;
18302;SDS011;9277;37.980;23.748;2023-07-09T09:58:11;3.88;;;3.42;;
18302;SDS011;9277;37.980;23.748;2023-07-09T10:00:38;4.65;;;3.65;;
18302;SDS011;9277;37.980;23.748;2023-07-09T10:03:05;6.53;;;3.60;;
18302;SDS011;9277;37.980;23.748;2023-07-09T10:05:33;6.18;;;3.30;;
18302;SDS011;9277;37.980;23.748;2023-07-09T10:08:06;4.07;;;3.20;;
18302;SDS011;9277;37.980;23.748;2023-07-09T10:10:34;4.68;;;3.38;;
18302;SDS011;9277;37.980;23.748;2023-07-09T10:13:04;6.80;;;4.10;;
18302;SDS011;9277;37.980;23.748;2023-07-09T10:15:34;7.97;;;4.82;;
18302;SDS011;9277;37.980;23.748;2023-07-09T10:18:03;7.65;;;4.90;;
18302;SDS011;9277;37.980;23.748;2023-07-09T10:20:35;7.78;;;4.57;;
18302;SDS011;9277;37.980;23.748;2023-07-09T10:23:09;6.15;;;4.70;;
18302;SDS011;9277;37.980;23.748;2023-07-09T10:25:40;8.18;;;4.72;;
18302;SDS011;9277;37.980;23.748;2023-07-09T10:30:52;7.75;;;5.03;;
18302;SDS011;9277;37.980;23.748;2023-07-09T10:33:25;7.15;;;4.72;;
18302;SDS011;9277;37.980;23.748;2023-07-09T10:35:55;8.02;;;5.15;;
18302;SDS011;9277;37.980;23.748;2023-07-09T10:38:32;6.38;;;4.88;;
18302;SDS011;9277;37.980;23.748;2023-07-09T10:41:01;8.02;;;4.90;;
18302;SDS011;9277;37.980;23.748;2023-07-09T10:43:33;7.28;;;5.28;;
18302;SDS011;9277;37.980;23.748;2023-07-09T10:46:02;6.75;;;4.47;;
18302;SDS011;9277;37.980;23.748;2023-07-09T10:48:32;6.90;;;4.50;;
18302;SDS011;9277;37.980;23.748;2023-07-09T10:50:59;8.27;;;4.72;;
18302;SDS011;9277;37.980;23.748;2023-07-09T10:53:29;8.60;;;4.60;;
18302;SDS011;9277;37.980;23.748;2023-07-09T10:55:59;7.32;;;4.75;;
18302;SDS011;9277;37.980;23.748;2023-07-09T10:58:30;5.20;;;4.30;;
18302;SDS011;9277;37.980;23.748;2023-07-09T11:00:57;7.55;;;4.68;;
18302;SDS011;9277;37.980;23.748;2023-07-09T11:03:28;5.97;;;4.57;;
18302;SDS011;9277;37.980;23.748;2023-07-09T11:05:57;7.30;;;4.93;;
18302;SDS011;9277;37.980;23.748;2023-07-09T11:08:24;5.32;;;4.35;;
18302;SDS011;9277;37.980;23.748;2023-07-09T11:10:54;10.35;;;5.40;;
18302;SDS011;9277;37.980;23.748;2023-07-09T11:13:25;6.40;;;4.40;;
18302;SDS011;9277;37.980;23.748;2023-07-09T11:15:54;6.47;;;4.90;;
18302;SDS011;9277;37.980;23.748;2023-07-09T11:18:22;7.95;;;4.88;;
18302;SDS011;9277;37.980;23.748;2023-07-09T11:20:55;7.40;;;4.80;;
18302;SDS011;9277;37.980;23.748;2023-07-09T11:23:23;6.57;;;4.90;;
18302;SDS011;9277;37.980;23.748;2023-07-09T11:26:00;7.60;;;5.20;;
18302;SDS011;9277;37.980;23.748;2023-07-09T11:28:34;9.10;;;5.45;;
18302;SDS011;9277;37.980;23.748;2023-07-09T11:31:05;11.27;;;5.88;;
18302;SDS011;9277;37.980;23.748;2023-07-09T11:33:32;10.68;;;4.95;;
18302;SDS011;9277;37.980;23.748;2023-07-09T11:36:09;6.95;;;4.55;;
18302;SDS011;9277;37.980;23.748;2023-07-09T11:38:38;6.57;;;4.60;;
18302;SDS011;9277;37.980;23.748;2023-07-09T11:43:48;5.50;;;4.57;;
18302;SDS011;9277;37.980;23.748;2023-07-09T11:46:17;8.30;;;4.85;;
18302;SDS011;9277;37.980;23.748;2023-07-09T11:48:44;7.05;;;4.53;;
18302;SDS011;9277;37.980;23.748;2023-07-09T11:51:14;6.93;;;4.85;;
18302;SDS011;9277;37.980;23.748;2023-07-09T11:53:43;5.80;;;4.50;;
18302;SDS011;9277;37.980;23.748;2023-07-09T11:56:11;6.20;;;3.97;;
18302;SDS011;9277;37.980;23.748;2023-07-09T11:58:48;7.35;;;4.68;;
18302;SDS011;9277;37.980;23.748;2023-07-09T12:01:16;6.15;;;4.65;;
18302;SDS011;9277;37.980;23.748;2023-07-09T12:03:44;5.75;;;4.70;;
18302;SDS011;9277;37.980;23.748;2023-07-09T12:06:15;7.55;;;4.50;;
18302;SDS011;9277;37.980;23.748;2023-07-09T12:08:43;6.13;;;4.25;;
18302;SDS011;9277;37.980;23.748;2023-07-09T12:11:17;5.15;;;4.10;;
18302;SDS011;9277;37.980;23.748;2023-07-09T12:13:45;4.32;;;3.70;;
18302;SDS011;9277;37.980;23.748;2023-07-09T12:16:24;8.00;;;4.28;;
18302;SDS011;9277;37.980;23.748;2023-07-09T12:18:51;5.57;;;3.80;;
18302;SDS011;9277;37.980;23.748;2023-07-09T12:21:17;4.00;;;3.33;;
18302;SDS011;9277;37.980;23.748;2023-07-09T12:23:44;5.93;;;3.78;;
18302;SDS011;9277;37.980;23.748;2023-07-09T12:26:11;3.47;;;3.13;;
18302;SDS011;9277;37.980;23.748;2023-07-09T12:28:39;6.88;;;4.18;;
18302;SDS011;9277;37.980;23.748;2023-07-09T12:31:10;5.70;;;3.80;;
18302;SDS011;9277;37.980;23.748;2023-07-09T12:33:45;7.43;;;3.53;;
18302;SDS011;9277;37.980;23.748;2023-07-09T12:36:12;5.95;;;3.65;;
18302;SDS011;9277;37.980;23.748;2023-07-09T12:38:40;3.50;;;3.20;;
18302;SDS011;9277;37.980;23.748;2023-07-09T12:41:09;6.05;;;3.78;;
18302;SDS011;9277;37.980;23.748;2023-07-09T12:43:40;5.05;;;3.80;;
18302;SDS011;9277;37.980;23.748;2023-07-09T12:46:07;5.25;;;3.67;;
18302;SDS011;9277;37.980;23.748;2023-07-09T12:48:34;6.40;;;3.83;;
18302;SDS011;9277;37.980;23.748;2023-07-09T12:51:05;5.78;;;3.60;;
18302;SDS011;9277;37.980;23.748;2023-07-09T12:53:32;4.15;;;3.55;;
18302;SDS011;9277;37.980;23.748;2023-07-09T12:56:00;6.95;;;3.47;;
18302;SDS011;9277;37.980;23.748;2023-07-09T12:58:27;5.00;;;3.55;;
18302;SDS011;9277;37.980;23.748;2023-07-09T13:00:55;8.13;;;3.58;;
18302;SDS011;9277;37.980;23.748;2023-07-09T13:03:24;5.03;;;3.65;;
18302;SDS011;9277;37.980;23.748;2023-07-09T13:05:57;6.82;;;3.53;;
18302;SDS011;9277;37.980;23.748;2023-07-09T13:08:25;4.18;;;3.30;;
18302;SDS011;9277;37.980;23.748;2023-07-09T13:10:52;4.90;;;3.60;;
18302;SDS011;9277;37.980;23.748;2023-07-09T13:13:19;3.65;;;3.30;;
18302;SDS011;9277;37.980;23.748;2023-07-09T13:15:48;5.10;;;3.65;;
18302;SDS011;9277;37.980;23.748;2023-07-09T13:18:15;3.95;;;2.92;;
18302;SDS011;9277;37.980;23.748;2023-07-09T13:20:42;4.38;;;3.22;;
18302;SDS011;9277;37.980;23.748;2023-07-09T13:23:09;3.22;;;2.85;;
18302;SDS011;9277;37.980;23.748;2023-07-09T13:25:39;11.85;;;3.97;;
18302;SDS011;9277;37.980;23.748;2023-07-09T13:28:08;4.95;;;3.70;;
18302;SDS011;9277;37.980;23.748;2023-07-09T13:30:39;4.75;;;3.20;;
18302;SDS011;9277;37.980;23.748;2023-07-09T13:33:07;6.18;;;3.85;;
18302;SDS011;9277;37.980;23.748;2023-07-09T13:35:35;5.53;;;3.30;;
18302;SDS011;9277;37.980;23.748;2023-07-09T13:38:02;5.47;;;3.63;;
18302;SDS011;9277;37.980;23.748;2023-07-09T13:40:30;4.00;;;3.10;;
18302;SDS011;9277;37.980;23.748;2023-07-09T13:42:59;4.15;;;3.17;;
18302;SDS011;9277;37.980;23.748;2023-07-09T13:45:25;3.92;;;3.20;;
18302;SDS011;9277;37.980;23.748;2023-07-09T13:47:52;4.45;;;3.08;;
18302;SDS011;9277;37.980;23.748;2023-07-09T13:50:19;3.65;;;2.80;;
18302;SDS011;9277;37.980;23.748;2023-07-09T13:52:47;5.20;;;3.28;;
18302;SDS011;9277;37.980;23.748;2023-07-09T13:55:15;6.63;;;2.97;;
18302;SDS011;9277;37.980;23.748;2023-07-09T13:57:43;5.10;;;3.38;;
18302;SDS011;9277;37.980;23.748;2023-07-09T14:00:12;5.47;;;3.38;;
18302;SDS011;9277;37.980;23.748;2023-07-09T14:02:39;4.28;;;3.20;;
18302;SDS011;9277;37.980;23.748;2023-07-09T14:05:07;3.97;;;3.15;;
18302;SDS011;9277;37.980;23.748;2023-07-09T14:07:36;6.40;;;3.35;;
18302;SDS011;9277;37.980;23.748;2023-07-09T14:10:05;3.00;;;2.75;;
18302;SDS011;9277;37.980;23.748;2023-07-09T14:12:32;3.70;;;2.90;;
18302;SDS011;9277;37.980;23.748;2023-07-09T14:14:59;4.70;;;2.67;;
18302;SDS011;9277;37.980;23.748;2023-07-09T14:17:28;4.38;;;2.92;;
18302;SDS011;9277;37.980;23.748;2023-07-09T14:19:55;7.35;;;3.50;;
18302;SDS011;9277;37.980;23.748;2023-07-09T14:22:27;4.50;;;3.20;;
18302;SDS011;9277;37.980;23.748;2023-07-09T14:24:54;9.38;;;3.72;;
18302;SDS011;9277;37.980;23.748;2023-07-09T14:27:21;6.80;;;3.78;;
18302;SDS011;9277;37.980;23.748;2023-07-09T14:29:48;4.78;;;3.38;;
18302;SDS011;9277;37.980;23.748;2023-07-09T14:32:23;3.95;;;3.20;;
18302;SDS011;9277;37.980;23.748;2023-07-09T14:34:55;3.58;;;2.80;;
18302;SDS011;9277;37.980;23.748;2023-07-09T14:37:21;6.55;;;3.38;;
18302;SDS011;9277;37.980;23.748;2023-07-09T14:39:48;3.83;;;2.90;;
18302;SDS011;9277;37.980;23.748;2023-07-09T14:42:15;5.97;;;3.20;;
18302;SDS011;9277;37.980;23.748;2023-07-09T14:44:42;3.10;;;2.70;;
18302;SDS011;9277;37.980;23.748;2023-07-09T14:47:10;3.92;;;3.25;;
18302;SDS011;9277;37.980;23.748;2023-07-09T14:49:38;4.60;;;3.63;;
18302;SDS011;9277;37.980;23.748;2023-07-09T14:52:08;10.52;;;3.00;;
18302;SDS011;9277;37.980;23.748;2023-07-09T14:54:36;7.47;;;3.83;;
18302;SDS011;9277;37.980;23.748;2023-07-09T14:57:03;4.57;;;3.22;;
18302;SDS011;9277;37.980;23.748;2023-07-09T14:59:34;3.10;;;2.80;;